Upper Key Largo, Florida
Current Conditions -  °F | °C
As of 8:58 AM on Sunday 21 Dec 2014 (Local Time) from KHST Reporting Station
Clear Clear  
Wind Chill: 71°   Ceiling: Unl
Heat Index: 71°   Visibility: 10mi
Dew Point: 67°   Wind: 2mph
Humidity: 87%   Direction: 130°SE
Pressure: 30.1"   Gusts: NA
Location:  25.2553°N, 80.3918°W
Report Text: KHST 211358Z AUTO 13002KT 10SM CLR 22/20 A3010 RMK AO2 SLP196 T02170195 $
Loading
Personal Weather Stations






























Interactive Weather Map New forecast layout! Learn more

10-Day Weather Forecast

Advertisements
Track Severe Weather on mobile